Time;durP1;ratioP1;P1;durP2;ratioP2;P2;SDS_P1;SDS_P2;PMS_P1;PMS_P2;Temp;Humidity;BMP_temperature;BMP_pressure;BME280_temperature;BME280_humidity;BME280_pressure;Samples;Min_cycle;Max_cycle;Signal;HPM_P1;HPM_P2
2022/12/01 00:00:39;;;;;;;43.47;26.27;;;;;;;5.14;100.00;102646.91;5326806;27;20028;-81
2022/12/01 00:03:11;;;;;;;45.75;26.85;;;;;;;5.20;100.00;102651.09;5321684;27;20115;-81
2022/12/01 00:05:42;;;;;;;44.55;25.98;;;;;;;5.14;100.00;102646.91;5322113;28;20028;-81
2022/12/01 00:08:13;;;;;;;44.22;26.70;;;;;;;5.09;100.00;102630.38;5322587;27;20052;-81
2022/12/01 00:10:45;;;;;;;46.83;28.30;;;;;;;5.18;100.00;102643.22;5322627;27;20543;-80
2022/12/01 00:13:16;;;;;;;42.67;26.52;;;;;;;5.14;100.00;102632.81;5318829;28;20052;-81
2022/12/01 00:15:48;;;;;;;47.97;26.98;;;;;;;5.17;100.00;102646.81;5319576;28;20028;-81
2022/12/01 00:18:19;;;;;;;43.75;26.83;;;;;;;5.17;100.00;102638.84;5294311;28;20020;-81
2022/12/01 00:20:54;;;;;;;44.85;25.60;;;;;;;5.24;100.00;102642.09;5321337;28;20164;-81
2022/12/01 00:23:26;;;;;;;47.08;27.60;;;;;;;5.08;100.00;102629.53;5319509;28;20455;-81
2022/12/01 00:26:04;;;;;;;47.47;28.02;;;;;;;5.12;100.00;102632.91;5322468;28;20047;-81
2022/12/01 00:28:35;;;;;;;44.80;27.52;;;;;;;5.16;100.00;102646.84;5321815;28;20024;-82
2022/12/01 00:31:08;;;;;;;45.70;26.70;;;;;;;5.17;100.00;102637.97;5322163;28;20031;-81
2022/12/01 00:33:40;;;;;;;44.78;27.17;;;;;;;5.12;100.00;102630.25;5292871;28;20035;-82
2022/12/01 00:36:11;;;;;;;47.67;27.48;;;;;;;5.17;100.00;102636.22;5309859;27;20024;-81
2022/12/01 00:38:43;;;;;;;46.58;26.75;;;;;;;5.19;100.00;102641.41;5292790;28;20133;-81
2022/12/01 00:41:14;;;;;;;50.00;28.17;;;;;;;5.13;100.00;102641.69;5308847;27;20063;-82
2022/12/01 00:43:45;;;;;;;52.47;29.35;;;;;;;5.14;100.00;102635.44;5316346;28;20059;-81
2022/12/01 00:46:17;;;;;;;50.30;29.02;;;;;;;5.05;100.00;102624.34;5311333;28;20016;-81
2022/12/01 00:48:48;;;;;;;51.05;29.40;;;;;;;5.13;100.00;102639.03;5314943;28;20437;-81
2022/12/01 00:51:20;;;;;;;50.25;28.38;;;;;;;5.08;100.00;102623.34;5313038;28;20483;-80
2022/12/01 00:53:51;;;;;;;48.90;29.05;;;;;;;5.09;100.00;102633.88;5315726;28;20641;-80
2022/12/01 00:56:22;;;;;;;51.90;28.85;;;;;;;5.03;100.00;102620.03;5305752;28;20028;-81
2022/12/01 00:58:54;;;;;;;49.10;28.10;;;;;;;5.10;100.00;102627.66;5312592;28;20100;-81
2022/12/01 01:01:25;;;;;;;53.10;28.92;;;;;;;5.08;100.00;102624.22;5296941;28;20017;-80
2022/12/01 01:03:57;;;;;;;52.50;27.83;;;;;;;5.14;100.00;102627.50;5311394;28;20082;-80
2022/12/01 01:06:28;;;;;;;59.80;30.25;;;;;;;5.09;100.00;102628.56;5313192;28;20129;-80
2022/12/01 01:09:00;;;;;;;55.25;29.55;;;;;;;5.20;100.00;102637.84;5328966;27;20082;-80
2022/12/01 01:11:31;;;;;;;55.65;29.10;;;;;;;5.21;100.00;102645.72;5334082;27;20086;-80
2022/12/01 01:14:03;;;;;;;58.97;29.52;;;;;;;5.16;100.00;102630.97;5331154;27;20020;-80
2022/12/01 01:16:34;;;;;;;62.00;31.13;;;;;;;5.22;100.00;102658.03;5339835;27;20119;-80
2022/12/01 01:19:05;;;;;;;66.30;31.08;;;;;;;5.21;100.00;102651.03;5334804;27;20662;-81
2022/12/01 01:21:38;;;;;;;56.80;29.13;;;;;;;5.24;100.00;102652.66;5329304;27;20460;-80
2022/12/01 01:24:09;;;;;;;64.65;32.95;;;;;;;5.22;100.00;102657.16;5337591;27;20364;-80
2022/12/01 01:26:40;;;;;;;64.95;32.53;;;;;;;5.19;100.00;102662.56;5330958;27;20032;-80
2022/12/01 01:29:12;;;;;;;61.42;31.42;;;;;;;5.20;100.00;102659.88;5333424;27;20433;-81
2022/12/01 01:31:43;;;;;;;61.65;31.05;;;;;;;5.19;100.00;102655.53;5329409;27;20036;-80
2022/12/01 01:34:15;;;;;;;61.20;29.73;;;;;;;5.10;100.00;102661.16;5327801;27;20020;-80
2022/12/01 01:36:46;;;;;;;59.55;29.98;;;;;;;5.18;100.00;102674.09;5334505;27;20384;-80
2022/12/01 01:39:17;;;;;;;57.50;29.40;;;;;;;5.08;100.00;102657.72;5333847;27;20032;-80
2022/12/01 01:41:49;;;;;;;56.67;29.25;;;;;;;5.16;100.00;102682.09;5328705;27;20024;-80
2022/12/01 01:44:42;;;;;;;59.30;31.23;;;;;;;5.23;100.00;102677.44;5331615;27;20086;-80
2022/12/01 01:47:19;;;;;;;60.00;28.88;;;;;;;5.09;100.00;102668.25;5345500;27;20027;-80
2022/12/01 01:49:53;;;;;;;;;;;;;;;5.29;100.00;102674.50;5333197;27;20073;-81
2022/12/01 01:52:27;;;;;;;59.00;27.90;;;;;;;5.10;100.00;102661.16;5338118;27;20387;-80
2022/12/01 01:54:59;;;;;;;52.35;27.83;;;;;;;5.15;100.00;102677.72;5334414;27;20588;-80
2022/12/01 01:57:32;;;;;;;59.33;29.15;;;;;;;5.15;100.00;102669.78;5350772;27;20024;-80
2022/12/01 02:00:07;;;;;;;55.35;28.85;;;;;;;5.15;100.00;102671.56;5339815;27;20387;-80
2022/12/01 02:02:44;;;;;;;54.13;27.75;;;;;;;5.07;100.00;102662.16;5337307;27;20032;-81
2022/12/01 02:05:21;;;;;;;58.58;29.52;;;;;;;5.15;100.00;102677.72;5330832;27;20024;-80
2022/12/01 02:07:55;;;;;;;56.97;27.77;;;;;;;5.21;100.00;102685.41;5335099;27;20417;-81
2022/12/01 02:10:45;;;;;;;54.65;27.27;;;;;;;5.18;100.00;102668.81;5337503;27;20030;-81
2022/12/01 02:13:45;;;;;;;60.20;28.60;;;;;;;5.23;100.00;102675.63;5336085;27;20032;-81
2022/12/01 02:16:31;;;;;;;50.10;26.17;;;;;;;5.25;100.00;102678.22;5336454;27;20024;-81
2022/12/01 02:19:34;;;;;;;56.13;29.35;;;;;;;5.26;100.00;102672.88;5363993;22;20400;-88
2022/12/01 02:22:23;;;;;;;59.30;29.88;;;;;;;5.25;100.00;102672.94;5284517;28;20096;-88
2022/12/01 02:25:15;;;;;;;58.35;28.52;;;;;;;5.26;100.00;102678.16;5290642;28;20033;-88
2022/12/01 02:28:01;;;;;;;59.80;29.40;;;;;;;5.22;100.00;102681.84;5279356;28;20045;-90
2022/12/01 02:30:47;;;;;;;57.33;29.85;;;;;;;5.23;100.00;102672.13;5277388;28;20021;-89
2022/12/01 02:33:42;;;;;;;63.80;30.23;;;;;;;5.27;100.00;102682.50;5267113;28;20128;-90
2022/12/01 02:36:33;;;;;;;60.10;30.70;;;;;;;5.24;100.00;102679.13;5254429;28;20625;-89
2022/12/01 02:39:16;;;;;;;60.92;30.20;;;;;;;5.29;100.00;102682.44;5243122;28;20033;-89
2022/12/01 02:41:53;;;;;;;64.57;31.27;;;;;;;5.21;100.00;102679.28;5262864;28;20021;-87
2022/12/01 02:44:31;;;;;;;62.97;30.67;;;;;;;5.22;100.00;102676.53;5265355;28;20029;-88
2022/12/01 02:47:13;;;;;;;63.90;32.08;;;;;;;5.25;100.00;102681.72;5264441;28;20025;-88
2022/12/01 02:49:50;;;;;;;59.75;30.40;;;;;;;5.22;100.00;102678.34;5264962;28;20041;-88
2022/12/01 02:52:23;;;;;;;58.42;29.15;;;;;;;5.25;100.00;102684.34;5264815;28;20116;-88
2022/12/01 02:54:55;;;;;;;63.90;33.03;;;;;;;5.19;100.00;102686.38;5263926;28;20407;-88
2022/12/01 02:57:29;;;;;;;66.20;31.85;;;;;;;5.21;100.00;102677.50;5245349;28;20116;-88
2022/12/01 03:00:01;;;;;;;66.63;31.73;;;;;;;5.24;100.00;102680.00;5246877;28;20017;-88
2022/12/01 03:02:57;;;;;;;63.60;32.58;;;;;;;5.27;100.00;102681.66;5234716;28;20463;-88
2022/12/01 03:05:43;;;;;;;57.95;27.08;;;;;;;5.37;100.00;102677.72;5261092;28;20029;-88
2022/12/01 03:09:00;;;;;;;67.17;30.93;;;;;;;5.26;100.00;102667.56;5241626;28;20029;-88
2022/12/01 03:11:49;;;;;;;64.15;30.40;;;;;;;5.33;100.00;102677.88;5260248;28;20147;-88
2022/12/01 03:14:28;;;;;;;60.40;30.27;;;;;;;5.23;100.00;102680.06;5259596;28;20014;-88
2022/12/01 03:17:04;;;;;;;58.60;28.77;;;;;;;5.32;100.00;102676.19;5261748;28;20486;-88
2022/12/01 03:20:01;;;;;;;60.22;30.83;;;;;;;5.27;100.00;102685.16;5263079;28;20568;-89
2022/12/01 03:22:40;;;;;;;64.78;31.52;;;;;;;5.29;100.00;102682.44;5257955;28;20040;-87
2022/12/01 03:25:14;;;;;;;61.80;30.58;;;;;;;5.26;100.00;102680.81;5262805;28;20032;-87
2022/12/01 03:27:49;;;;;;;60.17;29.10;;;;;;;5.28;100.00;102675.44;5244735;28;20021;-87
2022/12/01 03:30:25;;;;;;;58.03;31.70;;;;;;;5.22;100.00;102679.19;5247827;28;20077;-88
2022/12/01 03:33:03;;;;;;;63.42;32.50;;;;;;;5.20;100.00;102681.03;5260463;28;20482;-88
2022/12/01 03:35:40;;;;;;;58.45;30.63;;;;;;;5.19;100.00;102681.09;5259708;28;20461;-88
2022/12/01 03:38:18;;;;;;;57.78;31.23;;;;;;;5.20;100.00;102681.03;5244035;28;20471;-88
2022/12/01 03:40:54;;;;;;;55.55;29.50;;;;;;;5.21;100.00;102687.22;5243289;28;20034;-88
2022/12/01 03:43:34;;;;;;;55.92;29.17;;;;;;;5.19;100.00;102676.69;5244276;28;20034;-88
2022/12/01 03:46:40;;;;;;;59.42;30.77;;;;;;;5.23;100.00;102683.56;5261494;28;20036;-87
2022/12/01 03:49:13;;;;;;;57.67;30.45;;;;;;;5.19;100.00;102676.69;5240813;28;20545;-87
2022/12/01 03:52:27;;;;;;;56.58;30.63;;;;;;;5.22;100.00;102670.41;5262012;28;20048;-88
2022/12/01 03:55:18;;;;;;;57.97;31.38;;;;;;;5.15;100.00;102666.28;5261967;28;20072;-88
2022/12/01 03:58:09;;;;;;;52.83;29.25;;;;;;;5.30;100.00;102679.75;5262103;28;20520;-87
2022/12/01 04:00:42;;;;;;;62.10;30.95;;;;;;;5.26;100.00;102678.16;5261226;28;20062;-88
2022/12/01 04:03:17;;;;;;;53.10;26.20;;;;;;;5.48;100.00;102680.75;5266701;28;20025;-87
2022/12/01 04:05:48;;;;;;;61.45;32.45;;;;;;;5.26;100.00;102680.81;5264320;28;20068;-89
2022/12/01 04:08:20;;;;;;;53.47;28.58;;;;;;;5.41;100.00;102678.44;5267066;28;20466;-88
2022/12/01 04:10:51;;;;;;;58.85;29.67;;;;;;;5.35;100.00;102676.91;5267268;28;20032;-89
2022/12/01 04:13:24;;;;;;;52.35;28.63;;;;;;;5.39;100.00;102683.78;5255588;28;20092;-88
2022/12/01 04:15:55;;;;;;;60.92;32.03;;;;;;;5.30;100.00;102681.53;5274045;28;20482;-88
2022/12/01 04:18:27;;;;;;;59.53;31.13;;;;;;;5.28;100.00;102680.75;5269980;28;20048;-89
2022/12/01 04:20:58;;;;;;;56.90;30.40;;;;;;;5.32;100.00;102682.34;5270225;28;20061;-88
2022/12/01 04:26:19;;;;;;;53.75;30.35;;;;;;;5.26;100.00;102685.25;5269887;28;20021;-88
2022/12/01 04:28:51;;;;;;;57.40;30.13;;;;;;;5.27;100.00;102682.50;5271190;28;20099;-88
2022/12/01 04:31:22;;;;;;;53.97;28.80;;;;;;;5.33;100.00;102691.13;5256854;28;20037;-88
2022/12/01 04:33:54;;;;;;;58.58;29.98;;;;;;;5.23;100.00;102685.38;5277243;28;20034;-89
2022/12/01 04:36:29;;;;;;;60.22;30.65;;;;;;;5.24;100.00;102684.41;5275020;28;20034;-88
2022/12/01 04:39:02;;;;;;;52.85;29.85;;;;;;;5.27;100.00;102685.16;5267528;28;20683;-88
2022/12/01 04:41:33;;;;;;;56.83;30.73;;;;;;;5.25;100.00;102688.81;5263048;28;20036;-88
2022/12/01 04:44:04;;;;;;;55.55;31.13;;;;;;;5.27;100.00;102684.31;5264791;28;20670;-88
2022/12/01 04:46:36;;;;;;;56.28;29.63;;;;;;;5.29;100.00;102672.75;5269241;28;20025;-88
2022/12/01 04:49:08;;;;;;;55.13;30.40;;;;;;;5.26;100.00;102677.31;5251105;28;20029;-88
2022/12/01 04:51:39;;;;;;;62.85;32.35;;;;;;;5.25;100.00;102678.22;5268022;28;20453;-88
2022/12/01 04:54:11;;;;;;;55.00;30.33;;;;;;;5.33;100.00;102691.13;5260413;28;20557;-88
2022/12/01 04:56:42;;;;;;;55.20;30.50;;;;;;;5.22;100.00;102680.97;5272224;28;20029;-89
2022/12/01 04:59:14;;;;;;;53.53;28.85;;;;;;;5.32;100.00;102679.69;5253641;28;20121;-88
2022/12/01 05:01:46;;;;;;;57.55;31.65;;;;;;;5.24;100.00;102682.66;5284028;28;20053;-90
2022/12/01 05:04:20;;;;;;;57.75;31.65;;;;;;;5.20;100.00;102685.47;5276803;28;20033;-87
2022/12/01 05:06:53;;;;;;;56.15;28.35;;;;;;;5.22;100.00;102683.63;5279795;28;20028;-89
2022/12/01 05:09:24;;;;;;;53.60;29.92;;;;;;;5.19;100.00;102678.44;5278851;28;20026;-88
2022/12/01 05:11:55;;;;;;;53.55;29.00;;;;;;;5.20;100.00;102675.75;5257228;28;20032;-88
2022/12/01 05:14:27;;;;;;;51.88;29.67;;;;;;;5.13;100.00;102676.94;5272889;28;20018;-88
2022/12/01 05:16:59;;;;;;;56.78;29.83;;;;;;;5.13;100.00;102678.72;5277242;28;20033;-88
2022/12/01 05:22:20;;;;;;;56.88;29.80;;;;;;;5.10;100.00;102669.09;5269048;28;20053;-88
2022/12/01 05:24:51;;;;;;;56.72;30.63;;;;;;;5.06;100.00;102670.16;5273354;28;20481;-88
2022/12/01 05:27:23;;;;;;;53.65;29.80;;;;;;;5.17;100.00;102685.59;5277064;28;20026;-89
2022/12/01 05:29:54;;;;;;;56.92;30.90;;;;;;;5.15;100.00;102680.38;5281185;28;20033;-89
2022/12/01 05:32:25;;;;;;;56.72;29.92;;;;;;;5.17;100.00;102686.47;5262474;28;36434;-89
2022/12/01 05:34:56;;;;;;;59.05;31.50;;;;;;;5.09;100.00;102689.41;5282057;28;20021;-88
2022/12/01 05:37:32;;;;;;;58.60;31.30;;;;;;;5.05;100.00;102690.47;5281880;28;20029;-88
2022/12/01 05:40:04;;;;;;;55.85;29.85;;;;;;;5.09;100.00;102696.50;5282800;28;20021;-88
2022/12/01 05:42:35;;;;;;;56.17;29.27;;;;;;;5.11;100.00;102697.28;5283112;28;20013;-89
2022/12/01 05:45:07;;;;;;;55.55;30.77;;;;;;;5.03;100.00;102689.69;5260606;28;20132;-89
2022/12/01 05:47:41;;;;;;;63.33;31.35;;;;;;;5.08;100.00;102695.66;5282154;28;20033;-89
2022/12/01 05:50:12;;;;;;;52.00;28.20;;;;;;;5.21;100.00;102687.22;5272057;28;20033;-89
2022/12/01 05:52:44;;;;;;;59.35;32.33;;;;;;;5.06;100.00;102692.19;5245482;28;20037;-89
2022/12/01 05:55:15;;;;;;;60.08;30.60;;;;;;;5.07;100.00;102691.25;5249752;28;20087;-89
2022/12/01 05:57:47;;;;;;;55.42;29.42;;;;;;;5.06;100.00;102686.88;5250364;28;20025;-89
2022/12/01 06:00:18;;;;;;;53.83;29.75;;;;;;;5.07;100.00;102693.91;5247015;28;20121;-89
2022/12/01 06:02:50;;;;;;;58.97;30.95;;;;;;;5.06;100.00;102709.84;5264464;28;20093;-90
2022/12/01 06:05:21;;;;;;;58.17;30.50;;;;;;;5.10;100.00;102692.91;5267915;28;20026;-88
2022/12/01 06:07:52;;;;;;;53.78;29.25;;;;;;;5.11;100.00;102694.66;5248504;28;20018;-88
2022/12/01 06:10:24;;;;;;;57.40;31.60;;;;;;;5.06;100.00;102699.25;5257623;28;20363;-88
2022/12/01 06:12:55;;;;;;;60.30;32.35;;;;;;;5.07;100.00;102698.34;5249244;28;20624;-88
2022/12/01 06:15:27;;;;;;;60.33;30.10;;;;;;;5.05;100.00;102702.81;5247801;28;20026;-89
2022/12/01 06:17:58;;;;;;;52.92;28.35;;;;;;;5.13;100.00;102699.88;5247668;28;20049;-89
2022/12/01 06:20:30;;;;;;;57.13;29.95;;;;;;;5.09;100.00;102700.00;5261286;28;20574;-90
2022/12/01 06:23:01;;;;;;;53.95;27.58;;;;;;;5.13;100.00;102694.59;5247625;28;20033;-89
2022/12/01 06:25:32;;;;;;;57.65;32.35;;;;;;;5.06;100.00;102694.81;5241533;28;20026;-89
2022/12/01 06:28:04;;;;;;;53.83;30.38;;;;;;;5.07;100.00;102698.34;5257843;28;20125;-89
2022/12/01 06:30:35;;;;;;;60.33;30.80;;;;;;;5.01;100.00;102696.78;5237081;28;20033;-89
2022/12/01 06:33:07;;;;;;;57.30;30.42;;;;;;;5.03;100.00;102696.72;5243930;28;20437;-89
2022/12/01 06:35:38;;;;;;;56.38;29.70;;;;;;;5.08;100.00;102695.66;5262180;28;20064;-89
2022/12/01 06:38:09;;;;;;;54.88;29.17;;;;;;;5.11;100.00;102692.00;5268116;28;20040;-89
2022/12/01 06:40:42;;;;;;;65.68;32.17;;;;;;;5.05;100.00;102700.16;5239508;28;20033;-89
2022/12/01 06:43:13;;;;;;;62.53;32.10;;;;;;;5.00;100.00;102699.53;5243704;28;20025;-89
2022/12/01 06:45:45;;;;;;;56.80;30.48;;;;;;;5.07;100.00;102704.50;5263178;28;20029;-89
2022/12/01 06:48:16;;;;;;;63.42;32.35;;;;;;;5.03;100.00;102702.91;5247985;28;20030;-89
2022/12/01 06:50:48;;;;;;;55.60;26.90;;;;;;;5.10;100.00;102700.84;5244707;28;20021;-89
2022/12/01 06:53:20;;;;;;;62.42;28.88;;;;;;;5.32;100.00;102702.66;5245428;28;20052;-89
2022/12/01 06:55:51;;;;;;;61.55;30.20;;;;;;;5.37;100.00;102713.91;5246623;28;20029;-88
2022/12/01 06:58:22;;;;;;;60.95;30.02;;;;;;;5.40;100.00;102709.34;5259546;28;20033;-88
2022/12/01 07:00:54;;;;;;;55.40;26.00;;;;;;;5.64;100.00;102719.81;5260816;28;20056;-88
2022/12/01 07:03:26;;;;;;;63.17;30.58;;;;;;;5.57;100.00;102723.66;5260417;28;20036;-86
2022/12/01 07:06:01;;;;;;;66.28;29.98;;;;;;;5.67;100.00;102720.56;5245858;28;20061;-86
2022/12/01 07:08:32;;;;;;;62.33;30.67;;;;;;;5.75;100.00;102729.97;5263213;28;20478;-87
2022/12/01 07:11:07;;;;;;;74.45;34.45;;;;;;;5.52;100.00;102733.56;5262683;28;20034;-87
2022/12/01 07:13:39;;;;;;;66.63;31.65;;;;;;;5.37;100.00;102728.00;5261478;28;20029;-87
2022/12/01 07:16:11;;;;;;;59.25;31.23;;;;;;;5.36;100.00;102733.34;5265126;28;20504;-86
2022/12/01 07:18:43;;;;;;;62.20;31.38;;;;;;;5.31;100.00;102733.53;5261454;28;20034;-88
2022/12/01 07:21:15;;;;;;;57.80;30.50;;;;;;;5.23;100.00;102735.63;5258749;28;20064;-88
2022/12/01 07:23:47;;;;;;;63.20;31.23;;;;;;;5.25;100.00;102739.94;5247154;28;20084;-86
2022/12/01 07:26:18;;;;;;;58.08;30.17;;;;;;;5.18;100.00;102737.59;5267030;28;20024;-87
2022/12/01 07:28:49;;;;;;;55.00;29.15;;;;;;;5.20;100.00;102744.53;5242618;28;20022;-87
2022/12/01 07:31:21;;;;;;;54.92;29.52;;;;;;;5.19;100.00;102745.47;5246334;28;20057;-88
2022/12/01 07:33:52;;;;;;;54.95;29.73;;;;;;;5.18;100.00;102748.19;5253772;28;20033;-88
2022/12/01 07:36:27;;;;;;;56.80;29.73;;;;;;;5.18;100.00;102743.75;5258070;28;20022;-87
2022/12/01 07:39:02;;;;;;;56.72;28.20;;;;;;;5.20;100.00;102741.91;5255108;28;20013;-89
2022/12/01 07:41:34;;;;;;;53.20;28.93;;;;;;;5.19;100.00;102744.59;5311264;28;20071;-87
2022/12/01 07:44:08;;;;;;;53.78;28.70;;;;;;;5.18;100.00;102742.88;5288613;28;20033;-85
2022/12/01 07:46:39;;;;;;;49.75;27.92;;;;;;;5.21;100.00;102750.72;5297018;28;20732;-86
2022/12/01 07:49:13;;;;;;;53.45;29.20;;;;;;;5.22;100.00;102744.47;5272225;28;20045;-86
2022/12/01 07:51:45;;;;;;;57.60;28.67;;;;;;;5.22;100.00;102747.13;5244729;28;20091;-87
2022/12/01 07:54:18;;;;;;;52.15;28.13;;;;;;;5.24;100.00;102756.75;5245467;28;20030;-87
2022/12/01 07:56:50;;;;;;;53.03;30.10;;;;;;;5.21;100.00;102748.91;5245331;28;20030;-87
2022/12/01 07:59:21;;;;;;;53.38;30.42;;;;;;;5.25;100.00;102750.50;5244903;28;20018;-85
2022/12/01 08:01:53;;;;;;;52.53;27.30;;;;;;;5.32;100.00;102748.47;5245568;28;20412;-85
2022/12/01 08:04:24;;;;;;;50.88;28.55;;;;;;;5.30;100.00;102758.28;5251888;28;20028;-84
2022/12/01 08:06:55;;;;;;;54.63;28.35;;;;;;;5.32;100.00;102764.38;5267611;28;20040;-86
2022/12/01 08:09:27;;;;;;;54.92;28.83;;;;;;;5.35;100.00;102768.66;5242396;28;20026;-85
2022/12/01 08:11:58;;;;;;;50.22;26.05;;;;;;;5.51;100.00;102761.84;5261822;28;20068;-86
2022/12/01 08:14:29;;;;;;;50.38;27.35;;;;;;;5.53;100.00;102767.06;5259846;28;20022;-85
2022/12/01 08:17:01;;;;;;;55.47;30.55;;;;;;;5.47;100.00;102774.34;5261181;28;20485;-85
2022/12/01 08:19:32;;;;;;;51.22;28.17;;;;;;;5.48;100.00;102773.41;5257423;28;20049;-84
2022/12/01 08:22:03;;;;;;;49.50;28.67;;;;;;;5.52;100.00;102773.28;5260676;28;20409;-84
2022/12/01 08:24:35;;;;;;;46.88;27.27;;;;;;;5.52;100.00;102768.84;5259642;28;20030;-85
2022/12/01 08:27:06;;;;;;;56.30;30.83;;;;;;;5.51;100.00;102772.44;5243312;28;20481;-85
2022/12/01 08:29:37;;;;;;;50.83;28.40;;;;;;;5.52;100.00;102765.34;5242004;28;20030;-84
2022/12/01 08:32:09;;;;;;;45.50;26.35;;;;;;;5.61;100.00;102773.78;5259005;28;20036;-85
2022/12/01 08:34:40;;;;;;;49.08;28.67;;;;;;;5.69;100.00;102778.75;5257460;28;20394;-84
2022/12/01 08:37:11;;;;;;;51.22;28.33;;;;;;;5.78;100.00;102782.81;5261154;28;20049;-86
2022/12/01 08:39:43;;;;;;;49.10;28.27;;;;;;;5.63;100.00;102758.69;5243667;28;20025;-85
2022/12/01 08:42:14;;;;;;;49.80;28.75;;;;;;;5.75;100.00;102783.81;5264217;28;20458;-86
2022/12/01 08:44:45;;;;;;;50.30;27.98;;;;;;;5.83;100.00;102788.78;5243626;28;20501;-84
2022/12/01 08:47:17;;;;;;;51.30;28.25;;;;;;;5.89;100.00;102777.94;5256890;28;20816;-84
2022/12/01 08:49:48;;;;;;;51.90;29.23;;;;;;;5.91;100.00;102785.78;5242515;28;20047;-85
2022/12/01 08:52:20;;;;;;;50.63;30.02;;;;;;;5.91;100.00;102777.84;5260938;28;20485;-85
2022/12/01 08:54:51;;;;;;;48.42;28.80;;;;;;;5.89;100.00;102777.94;5260777;28;20304;-85
2022/12/01 08:57:23;;;;;;;51.50;28.65;;;;;;;5.93;100.00;102783.97;5239059;28;20526;-84
2022/12/01 08:59:54;;;;;;;48.85;28.98;;;;;;;5.99;100.00;102778.41;5264509;28;20437;-83
2022/12/01 09:02:26;;;;;;;48.67;28.60;;;;;;;5.88;100.00;102774.41;5259639;28;20033;-84
2022/12/01 09:04:57;;;;;;;46.17;27.40;;;;;;;6.01;100.00;102774.78;5261350;28;20053;-85
2022/12/01 09:07:28;;;;;;;46.50;27.45;;;;;;;6.02;100.00;102779.16;5261051;28;20120;-84
2022/12/01 09:10:00;;;;;;;58.55;29.83;;;;;;;6.15;100.00;102779.47;5242911;28;20034;-84
2022/12/01 09:12:31;;;;;;;46.28;27.85;;;;;;;6.11;100.00;102777.91;5259248;28;20038;-84
2022/12/01 09:15:03;;;;;;;46.17;26.65;;;;;;;6.16;100.00;102781.22;5260696;28;20108;-84
2022/12/01 09:17:34;;;;;;;45.58;28.33;;;;;;;6.17;100.00;102782.94;5261616;28;20030;-84
2022/12/01 09:20:06;;;;;;;45.22;27.90;;;;;;;6.25;100.00;102782.59;5265340;28;20147;-85
2022/12/01 09:22:38;;;;;;;52.42;29.67;;;;;;;6.30;100.00;102788.56;5261108;28;20029;-84
2022/12/01 09:25:13;;;;;;;47.20;28.25;;;;;;;6.25;100.00;102783.44;5260282;28;20021;-85
2022/12/01 09:27:44;;;;;;;45.20;27.05;;;;;;;6.33;100.00;102788.44;5261500;28;20419;-85
2022/12/01 09:30:16;;;;;;;48.53;29.38;;;;;;;6.40;100.00;102787.25;5259711;28;20062;-85
2022/12/01 09:32:47;;;;;;;43.60;27.27;;;;;;;6.42;100.00;102793.31;5261873;28;20132;-85
2022/12/01 09:35:19;;;;;;;45.00;28.38;;;;;;;6.48;100.00;102797.50;5259947;28;20068;-85
2022/12/01 09:37:50;;;;;;;44.95;27.20;;;;;;;6.51;100.00;102800.00;5276855;28;20113;-85
2022/12/01 09:40:29;;;;;;;40.35;25.77;;;;;;;6.65;100.00;102788.78;5276755;28;20398;-85
2022/12/01 09:43:04;;;;;;;44.40;26.88;;;;;;;6.74;100.00;102804.28;5258778;28;20054;-83
2022/12/01 09:45:41;;;;;;;45.15;27.13;;;;;;;6.76;100.00;102788.31;5259739;28;20117;-86
2022/12/01 09:48:33;;;;;;;43.33;27.35;;;;;;;6.80;100.00;102790.75;5259773;28;20017;-86
2022/12/01 09:51:04;;;;;;;47.20;28.30;;;;;;;6.81;100.00;102791.59;5259194;28;20400;-86
2022/12/01 09:53:35;;;;;;;49.45;29.17;;;;;;;6.86;100.00;102789.59;5260308;28;20030;-84
2022/12/01 09:56:18;;;;;;;42.45;28.52;;;;;;;6.92;100.00;102786.66;5260650;28;20371;-85
2022/12/01 09:58:55;;;;;;;45.97;28.63;;;;;;;6.95;100.00;102786.50;5250870;28;20025;-85
2022/12/01 10:01:38;;;;;;;42.63;27.83;;;;;;;7.07;100.00;102786.91;5259075;28;20029;-85
2022/12/01 10:04:29;;;;;;;42.33;27.33;;;;;;;7.12;100.00;102783.09;5261080;28;20038;-85
2022/12/01 10:07:19;;;;;;;43.13;28.25;;;;;;;7.27;100.00;102783.28;5262071;28;20103;-85
2022/12/01 10:09:56;;;;;;;46.75;28.20;;;;;;;7.35;100.00;102771.34;5264947;28;20022;-85
2022/12/01 10:12:35;;;;;;;41.60;27.05;;;;;;;7.43;100.00;102778.94;5264564;28;20033;-85
2022/12/01 10:15:34;;;;;;;44.75;27.65;;;;;;;7.55;100.00;102775.69;5267606;28;20382;-85
2022/12/01 10:18:21;;;;;;;43.55;27.13;;;;;;;7.55;100.00;102780.16;5270122;28;20112;-85
2022/12/01 10:21:09;;;;;;;45.78;28.80;;;;;;;7.52;100.00;102777.63;5283945;28;20046;-84
2022/12/01 10:23:43;;;;;;;46.85;28.77;;;;;;;7.43;100.00;102775.44;5285566;28;20037;-84
2022/12/01 10:26:25;;;;;;;42.60;27.90;;;;;;;7.56;100.00;102774.75;5275514;28;20087;-85
2022/12/01 10:29:12;;;;;;;44.17;29.40;;;;;;;7.62;100.00;102770.94;5264002;28;20048;-85
2022/12/01 10:31:54;;;;;;;45.67;27.60;;;;;;;7.66;100.00;102768.97;5262289;28;20037;-84
2022/12/01 10:34:28;;;;;;;43.88;28.55;;;;;;;7.75;100.00;102772.06;5262334;28;20049;-84
2022/12/01 10:37:00;;;;;;;43.67;27.75;;;;;;;7.95;100.00;102764.88;5263367;28;20128;-84
2022/12/01 10:39:42;;;;;;;40.92;26.02;;;;;;;8.24;100.00;102755.41;5262528;28;20017;-85
2022/12/01 10:42:36;;;;;;;44.10;28.13;;;;;;;8.49;100.00;102754.97;5263619;28;20052;-85
2022/12/01 10:45:30;;;;;;;42.10;26.30;;;;;;;8.65;100.00;102744.38;5262218;28;20013;-85
2022/12/01 10:48:14;;;;;;;40.67;27.13;;;;;;;8.79;100.00;102748.09;5263725;28;20026;-85
2022/12/01 10:50:54;;;;;;;41.95;27.60;;;;;;;8.88;100.00;102744.91;5263200;28;20120;-85
2022/12/01 10:53:29;;;;;;;43.55;27.70;;;;;;;9.02;100.00;102742.34;5264329;28;20087;-84
2022/12/01 10:56:09;;;;;;;43.83;28.05;;;;;;;9.27;100.00;102743.59;5263922;28;20474;-85
2022/12/01 10:59:01;;;;;;;41.63;27.83;;;;;;;9.53;100.00;102750.09;5264198;28;20021;-85
2022/12/01 11:01:34;;;;;;;40.17;26.05;;;;;;;9.47;100.00;102747.81;5263119;28;20462;-85
2022/12/01 11:04:20;;;;;;;42.20;26.92;;;;;;;9.55;100.00;102748.19;5270772;28;20032;-85
2022/12/01 11:06:51;;;;;;;39.70;26.48;;;;;;;9.68;100.00;102740.38;5241399;28;20385;-85
2022/12/01 11:09:26;;;;;;;37.50;25.33;;;;;;;9.71;100.00;102741.97;5259077;28;20021;-85
2022/12/01 11:12:03;;;;;;;37.50;24.95;;;;;;;9.72;100.00;102731.22;5263702;28;20117;-85
2022/12/01 11:14:46;;;;;;;35.35;24.85;;;;;;;9.78;100.00;102736.22;5257412;28;20057;-85
2022/12/01 11:17:38;;;;;;;38.30;25.08;;;;;;;9.77;100.00;102737.16;5256626;28;20029;-85
2022/12/01 11:20:29;;;;;;;37.65;25.00;;;;;;;9.77;100.00;102736.31;5262003;28;20048;-85
2022/12/01 11:23:28;;;;;;;42.67;26.63;;;;;;;9.73;100.00;102745.41;5264099;28;20022;-85
2022/12/01 11:26:19;;;;;;;39.42;26.05;;;;;;;9.51;100.00;102730.69;5263477;28;20048;-86
2022/12/01 11:28:52;;;;;;;42.17;26.55;;;;;;;9.14;100.00;102726.63;5245979;28;20009;-86
2022/12/01 11:31:44;;;;;;;39.42;25.27;;;;;;;9.32;100.00;102725.56;5244433;28;20014;-85
2022/12/01 11:34:27;;;;;;;39.42;25.98;;;;;;;9.12;100.00;102717.88;5231240;28;20138;-85
2022/12/01 11:37:06;;;;;;;41.78;25.75;;;;;;;8.89;100.00;102718.22;5231660;28;20419;-85
2022/12/01 11:39:40;;;;;;;40.47;26.00;;;;;;;8.70;100.00;102712.19;5247158;28;20487;-85
2022/12/01 11:42:23;;;;;;;36.75;25.73;;;;;;;8.74;100.00;102707.56;5261604;28;20029;-85
2022/12/01 11:45:21;;;;;;;38.42;24.85;;;;;;;8.91;100.00;102709.31;5259146;28;20486;-84
2022/12/01 11:47:59;;;;;;;41.85;26.05;;;;;;;8.73;100.00;102717.38;5245014;28;20079;-85
2022/12/01 11:50:33;;;;;;;42.58;26.45;;;;;;;8.56;100.00;102718.28;5244515;28;20112;-85
2022/12/01 11:53:28;;;;;;;43.92;27.35;;;;;;;8.62;100.00;102706.44;5262612;28;20033;-85